createdAt,value
2018-11-21T00:00:08.870Z,2.3
2018-11-21T00:01:18.040Z,2.3
2018-11-21T00:02:27.296Z,2.3
2018-11-21T00:03:36.567Z,2.3
2018-11-21T00:04:45.667Z,2.3
2018-11-21T00:05:54.868Z,2.2
2018-11-21T00:07:04.079Z,2.2
2018-11-21T00:08:13.325Z,2.3
2018-11-21T00:09:22.524Z,2.3
2018-11-21T00:10:31.691Z,2.3
2018-11-21T00:11:40.956Z,2.3
2018-11-21T00:12:50.209Z,2.3
2018-11-21T00:13:59.317Z,2.3
2018-11-21T00:15:08.503Z,2.2
2018-11-21T00:16:18.044Z,2.2
2018-11-21T00:17:26.908Z,2.2
2018-11-21T00:18:36.119Z,2.2
2018-11-21T00:19:45.314Z,2.2
2018-11-21T00:20:54.539Z,2.2
2018-11-21T00:22:03.729Z,2.3
2018-11-21T00:23:12.935Z,2.2
2018-11-21T00:24:22.216Z,2.2
2018-11-21T00:25:31.338Z,2.2
2018-11-21T00:26:40.539Z,2.2
2018-11-21T00:27:49.754Z,2.2
2018-11-21T00:28:58.963Z,2.2
2018-11-21T00:30:08.436Z,2.3
2018-11-21T00:31:17.358Z,2.2
2018-11-21T00:32:26.567Z,2.1
2018-11-21T00:33:35.772Z,2.1
2018-11-21T00:34:44.974Z,2.1
2018-11-21T00:35:54.177Z,2.2
2018-11-21T00:37:03.391Z,2.2
2018-11-21T00:38:12.594Z,2.2
2018-11-21T00:39:21.775Z,2.1
2018-11-21T00:40:30.985Z,2.2
2018-11-21T00:41:40.198Z,2.2
2018-11-21T00:42:49.386Z,2.2
2018-11-21T00:43:58.606Z,2.1
2018-11-21T00:45:07.791Z,2.1
2018-11-21T00:46:17.024Z,2.1
2018-11-21T00:47:26.188Z,2.1
2018-11-21T00:48:35.395Z,2.2
2018-11-21T00:49:44.601Z,2.1
2018-11-21T00:50:53.805Z,2.1
2018-11-21T00:52:03.017Z,2.1
2018-11-21T00:53:12.285Z,2.1
2018-11-21T00:54:21.444Z,2.1
2018-11-21T00:55:30.620Z,2.1
2018-11-21T00:56:40.153Z,2.1
2018-11-21T00:57:49.046Z,2.1
2018-11-21T00:58:58.236Z,2
2018-11-21T01:00:07.432Z,2.1
2018-11-21T01:01:16.632Z,2
2018-11-21T01:02:25.842Z,2.1
2018-11-21T01:03:35.046Z,2.1
2018-11-21T01:04:44.246Z,2.1
2018-11-21T01:05:53.442Z,2.1
2018-11-21T01:07:02.656Z,2.1
2018-11-21T01:08:11.830Z,2.1
2018-11-21T01:09:21.045Z,2.1
2018-11-21T01:10:30.272Z,2
2018-11-21T01:11:39.477Z,2
2018-11-21T01:12:48.757Z,2
2018-11-21T01:13:57.855Z,2
2018-11-21T01:15:07.061Z,2
2018-11-21T01:16:16.269Z,2
2018-11-21T01:17:25.458Z,2
2018-11-21T01:18:34.695Z,2
2018-11-21T01:19:43.856Z,2
2018-11-21T01:20:53.061Z,2
2018-11-21T01:22:02.258Z,2.1
2018-11-21T01:23:11.492Z,2.1
2018-11-21T01:24:20.688Z,2.1
2018-11-21T01:25:29.873Z,2.1
2018-11-21T01:26:39.069Z,2
2018-11-21T01:27:48.278Z,2
2018-11-21T01:28:57.470Z,2.1
2018-11-21T01:30:06.657Z,2
2018-11-21T01:31:15.866Z,2
2018-11-21T01:32:25.070Z,1.9
2018-11-21T01:33:34.253Z,1.9
2018-11-21T01:34:43.489Z,2
2018-11-21T01:35:52.664Z,2
2018-11-21T01:37:01.848Z,2
2018-11-21T01:38:11.066Z,1.9
2018-11-21T01:39:20.247Z,2
2018-11-21T01:40:29.445Z,1.9
2018-11-21T01:41:38.648Z,1.9
2018-11-21T01:42:47.856Z,2
2018-11-21T01:43:57.045Z,1.9
2018-11-21T01:45:06.240Z,1.9
2018-11-21T01:46:15.508Z,1.9
2018-11-21T01:47:24.635Z,1.9
2018-11-21T01:48:33.883Z,1.9
2018-11-21T01:49:43.035Z,2
2018-11-21T01:50:52.233Z,1.9
2018-11-21T01:52:01.429Z,1.9
2018-11-21T01:53:10.647Z,1.9
2018-11-21T01:54:21.253Z,1.9
2018-11-21T01:55:30.012Z,1.9
2018-11-21T01:56:38.703Z,2
2018-11-21T01:57:47.828Z,1.9
2018-11-21T01:58:56.708Z,1.9
2018-11-21T02:00:05.979Z,2
2018-11-21T02:01:16.630Z,1.9
2018-11-21T02:02:24.732Z,1.9
2018-11-21T02:03:33.416Z,1.9
2018-11-21T02:04:42.635Z,2
2018-11-21T02:05:51.813Z,1.9
2018-11-21T02:07:00.999Z,1.9
2018-11-21T02:08:10.202Z,1.9
2018-11-21T02:09:19.405Z,1.9
2018-11-21T02:10:28.641Z,1.9
2018-11-21T02:11:38.019Z,1.9
2018-11-21T02:12:46.996Z,1.8
2018-11-21T02:13:56.192Z,1.9
2018-11-21T02:15:05.398Z,1.9
2018-11-21T02:16:14.582Z,1.9
2018-11-21T02:17:23.783Z,2
2018-11-21T02:18:32.983Z,1.9
2018-11-21T02:19:42.380Z,1.9
2018-11-21T02:20:51.381Z,1.9
2018-11-21T02:22:00.583Z,1.8
2018-11-21T02:23:09.784Z,1.8
2018-11-21T02:24:18.975Z,1.8
2018-11-21T02:25:28.169Z,1.8
2018-11-21T02:26:37.405Z,1.8
2018-11-21T02:27:46.562Z,1.9
2018-11-21T02:28:55.763Z,1.8
2018-11-21T02:30:04.960Z,1.8
2018-11-21T02:31:14.143Z,1.8
2018-11-21T02:32:23.348Z,1.8
2018-11-21T02:33:32.560Z,1.8
2018-11-21T02:34:41.787Z,1.8
2018-11-21T02:35:51.022Z,1.8
2018-11-21T02:37:00.148Z,1.8
2018-11-21T02:38:09.323Z,1.7
2018-11-21T02:39:18.515Z,1.7
2018-11-21T02:40:27.801Z,1.8
2018-11-21T02:41:36.927Z,1.8
2018-11-21T02:42:46.536Z,1.8
2018-11-21T02:43:55.642Z,1.7
2018-11-21T02:45:04.504Z,1.7
2018-11-21T02:46:13.701Z,1.7
2018-11-21T02:47:22.888Z,1.6
2018-11-21T02:48:32.084Z,1.7
2018-11-21T02:49:41.353Z,1.7
2018-11-21T02:50:50.479Z,1.7
2018-11-21T02:51:59.693Z,1.7
2018-11-21T02:53:08.884Z,1.7
2018-11-21T02:54:18.062Z,1.7
2018-11-21T02:55:27.307Z,1.7
2018-11-21T02:56:36.449Z,1.8
2018-11-21T02:57:45.650Z,1.7
2018-11-21T02:58:54.835Z,1.7
2018-11-21T03:00:04.030Z,1.7
2018-11-21T03:01:13.220Z,1.7
2018-11-21T03:02:22.443Z,1.6
2018-11-21T03:03:31.622Z,1.6
2018-11-21T03:04:40.801Z,1.7
2018-11-21T03:05:50.006Z,1.6
2018-11-21T03:06:59.207Z,1.7
2018-11-21T03:08:08.371Z,1.7
2018-11-21T03:09:17.569Z,1.6
2018-11-21T03:10:26.771Z,1.6
2018-11-21T03:11:35.952Z,1.6
2018-11-21T03:12:45.140Z,1.6
2018-11-21T03:13:54.327Z,1.6
2018-11-21T03:15:03.540Z,1.6
2018-11-21T03:16:12.723Z,1.6
2018-11-21T03:17:21.910Z,1.7
2018-11-21T03:18:31.106Z,1.6
2018-11-21T03:19:40.541Z,1.7
2018-11-21T03:20:49.478Z,1.7
2018-11-21T03:21:58.692Z,1.6
2018-11-21T03:23:07.880Z,1.6
2018-11-21T03:24:17.051Z,1.6
2018-11-21T03:25:26.320Z,1.6
2018-11-21T03:26:35.471Z,1.6
2018-11-21T03:27:44.715Z,1.6
2018-11-21T03:28:53.920Z,1.5
2018-11-21T03:30:03.012Z,1.6
2018-11-21T03:31:12.320Z,1.6
2018-11-21T03:32:21.406Z,1.6
2018-11-21T03:33:30.593Z,1.6
2018-11-21T03:34:39.767Z,1.7
2018-11-21T03:35:48.988Z,1.6
2018-11-21T03:36:58.210Z,1.6
2018-11-21T03:38:07.351Z,1.7
2018-11-21T03:39:16.544Z,1.7
2018-11-21T03:40:25.746Z,1.6
2018-11-21T03:41:34.958Z,1.7
2018-11-21T03:42:44.113Z,1.7
2018-11-21T03:43:53.308Z,1.6
2018-11-21T03:45:02.493Z,1.7
2018-11-21T03:46:11.686Z,1.7
2018-11-21T03:47:20.873Z,1.7
2018-11-21T03:48:30.076Z,1.6
2018-11-21T03:49:39.274Z,1.7
2018-11-21T03:51:57.658Z,1.7
2018-11-21T03:53:06.817Z,1.7
2018-11-21T03:54:16.009Z,1.6
2018-11-21T03:55:25.218Z,1.6
2018-11-21T03:56:34.399Z,1.6
2018-11-21T03:57:43.599Z,1.6
2018-11-21T03:58:52.785Z,1.7
2018-11-21T04:00:01.977Z,1.7
2018-11-21T04:01:11.172Z,1.6
2018-11-21T04:02:20.365Z,1.6
2018-11-21T04:03:29.552Z,1.6
2018-11-21T04:04:38.820Z,1.6
2018-11-21T04:05:47.930Z,1.6
2018-11-21T04:06:57.122Z,1.6
2018-11-21T04:08:06.316Z,1.6
2018-11-21T04:09:15.796Z,1.6
2018-11-21T04:10:24.710Z,1.6
2018-11-21T04:11:33.888Z,1.6
2018-11-21T04:12:43.082Z,1.6
2018-11-21T04:13:52.271Z,1.6
2018-11-21T04:15:01.455Z,1.6
2018-11-21T04:16:10.666Z,1.6
2018-11-21T04:17:19.843Z,1.5
2018-11-21T04:18:29.096Z,1.6
2018-11-21T04:19:38.225Z,1.6
2018-11-21T04:20:47.401Z,1.5
2018-11-21T04:21:56.670Z,1.6
2018-11-21T04:23:05.793Z,1.6
2018-11-21T04:24:15.320Z,1.5
2018-11-21T04:25:24.185Z,1.5
2018-11-21T04:26:33.387Z,1.6
2018-11-21T04:27:42.563Z,1.5
2018-11-21T04:28:51.719Z,1.6
2018-11-21T04:30:00.937Z,1.6
2018-11-21T04:31:10.140Z,1.5
2018-11-21T04:32:19.296Z,1.6
2018-11-21T04:33:28.586Z,1.5
2018-11-21T04:34:37.708Z,1.6
2018-11-21T04:35:46.875Z,1.6
2018-11-21T04:36:56.069Z,1.6
2018-11-21T04:38:05.256Z,1.6
2018-11-21T04:39:14.448Z,1.6
2018-11-21T04:40:23.622Z,1.5
2018-11-21T04:41:32.829Z,1.5
2018-11-21T04:42:42.015Z,1.5
2018-11-21T04:43:51.200Z,1.5
2018-11-21T04:45:00.410Z,1.5
2018-11-21T04:46:09.574Z,1.5
2018-11-21T04:47:18.798Z,1.5
2018-11-21T04:48:28.042Z,1.6
2018-11-21T04:49:37.140Z,1.6
2018-11-21T04:50:46.353Z,1.5
2018-11-21T04:51:55.532Z,1.5
2018-11-21T04:53:04.709Z,1.5
2018-11-21T04:54:13.908Z,1.5
2018-11-21T04:55:23.088Z,1.5
2018-11-21T04:56:32.329Z,1.5
2018-11-21T04:57:41.464Z,1.5
2018-11-21T04:58:50.660Z,1.6
2018-11-21T04:59:59.837Z,1.5
2018-11-21T05:01:09.036Z,1.5
2018-11-21T05:02:18.223Z,1.5
2018-11-21T05:03:27.600Z,1.5
2018-11-21T05:04:36.622Z,1.5
2018-11-21T05:05:45.783Z,1.6
2018-11-21T05:06:54.971Z,1.5
2018-11-21T05:08:04.170Z,1.5
2018-11-21T05:09:13.353Z,1.5
2018-11-21T05:10:22.543Z,1.5
2018-11-21T05:11:31.723Z,1.6
2018-11-21T05:12:40.906Z,1.6
2018-11-21T05:13:50.102Z,1.6
2018-11-21T05:14:59.288Z,1.5
2018-11-21T05:16:08.482Z,1.6
2018-11-21T05:17:17.665Z,1.6
2018-11-21T05:18:26.847Z,1.6
2018-11-21T05:19:36.069Z,1.6
2018-11-21T05:20:45.214Z,1.6
2018-11-21T05:21:54.428Z,1.6
2018-11-21T05:23:03.599Z,1.7
2018-11-21T05:24:12.772Z,1.6
2018-11-21T05:25:21.964Z,1.6
2018-11-21T05:26:31.176Z,1.6
2018-11-21T05:27:40.465Z,1.6
2018-11-21T05:28:51.154Z,1.5
2018-11-21T05:29:59.321Z,1.6
2018-11-21T05:31:08.797Z,1.6
2018-11-21T05:32:17.925Z,1.6
2018-11-21T05:33:26.380Z,1.6
2018-11-21T05:34:35.494Z,1.6
2018-11-21T05:35:44.675Z,1.6
2018-11-21T05:36:53.845Z,1.6
2018-11-21T05:38:03.344Z,1.6
2018-11-21T05:39:12.338Z,1.6
2018-11-21T05:40:21.402Z,1.6
2018-11-21T05:41:30.985Z,1.6
2018-11-21T05:42:39.781Z,1.6
2018-11-21T05:43:49.061Z,1.6
2018-11-21T05:44:58.206Z,1.6
2018-11-21T05:46:07.351Z,1.6
2018-11-21T05:47:16.540Z,1.6
2018-11-21T05:48:25.730Z,1.6
2018-11-21T05:49:34.960Z,1.6
2018-11-21T05:50:44.113Z,1.6
2018-11-21T05:51:53.312Z,1.6
2018-11-21T05:53:02.574Z,1.6
2018-11-21T05:54:11.682Z,1.6
2018-11-21T05:55:20.854Z,1.6
2018-11-21T05:56:30.055Z,1.6
2018-11-21T05:57:39.243Z,1.5
2018-11-21T05:58:48.426Z,1.6
2018-11-21T05:59:57.644Z,1.6
2018-11-21T06:01:06.801Z,1.6
2018-11-21T06:02:15.992Z,1.6
2018-11-21T06:03:25.180Z,1.6
2018-11-21T06:04:34.375Z,1.6
2018-11-21T06:05:43.593Z,1.6
2018-11-21T06:06:52.764Z,1.6
2018-11-21T06:08:01.953Z,1.6
2018-11-21T06:09:11.128Z,1.6
2018-11-21T06:10:20.308Z,1.6
2018-11-21T06:11:29.518Z,1.6
2018-11-21T06:12:38.695Z,1.6
2018-11-21T06:13:47.881Z,1.6
2018-11-21T06:14:57.070Z,1.6
2018-11-21T06:16:06.298Z,1.6
2018-11-21T06:17:15.444Z,1.6
2018-11-21T06:18:24.632Z,1.6
2018-11-21T06:19:33.870Z,1.6
2018-11-21T06:20:43.017Z,1.6
2018-11-21T06:21:52.207Z,1.7
2018-11-21T06:23:01.396Z,1.7
2018-11-21T06:24:10.593Z,1.7
2018-11-21T06:25:19.772Z,1.7
2018-11-21T06:26:28.963Z,1.6
2018-11-21T06:27:38.158Z,1.6
2018-11-21T06:28:47.341Z,1.6
2018-11-21T06:29:56.547Z,1.7
2018-11-21T06:31:05.732Z,1.6
2018-11-21T06:32:14.923Z,1.6
2018-11-21T06:33:24.130Z,1.6
2018-11-21T06:34:33.319Z,1.6
2018-11-21T06:35:42.570Z,1.7
2018-11-21T06:36:51.670Z,1.7
2018-11-21T06:38:00.871Z,1.7
2018-11-21T06:39:10.179Z,1.7
2018-11-21T06:40:19.246Z,1.7
2018-11-21T06:41:28.488Z,1.7
2018-11-21T06:42:37.634Z,1.7
2018-11-21T06:43:46.828Z,1.7
2018-11-21T06:44:56.015Z,1.7
2018-11-21T06:46:05.212Z,1.7
2018-11-21T06:47:14.403Z,1.7
2018-11-21T06:48:23.666Z,1.6
2018-11-21T06:49:32.782Z,1.6
2018-11-21T06:50:42.012Z,1.6
2018-11-21T06:51:51.173Z,1.6
2018-11-21T06:53:00.449Z,1.6
2018-11-21T06:54:09.560Z,1.6
2018-11-21T06:55:18.777Z,1.6
2018-11-21T06:56:28.152Z,1.5
2018-11-21T06:57:37.155Z,1.5
2018-11-21T06:58:46.338Z,1.6
2018-11-21T06:59:55.535Z,1.6
2018-11-21T07:01:04.741Z,1.6
2018-11-21T07:02:13.900Z,1.6
2018-11-21T07:03:23.096Z,1.6
2018-11-21T07:04:32.303Z,1.6
2018-11-21T07:05:41.474Z,1.7
2018-11-21T07:06:50.673Z,1.7
2018-11-21T07:07:59.873Z,1.6
2018-11-21T07:09:09.044Z,1.6
2018-11-21T07:10:18.292Z,1.7
2018-11-21T07:11:27.448Z,1.7
2018-11-21T07:12:36.623Z,1.6
2018-11-21T07:13:45.855Z,1.7
2018-11-21T07:14:54.999Z,1.7
2018-11-21T07:16:04.217Z,1.7
2018-11-21T07:17:13.418Z,1.7
2018-11-21T07:18:22.578Z,1.7
2018-11-21T07:19:31.782Z,1.6
2018-11-21T07:20:40.965Z,1.6
2018-11-21T07:21:50.150Z,1.6
2018-11-21T07:22:59.443Z,1.6
2018-11-21T07:24:08.648Z,1.7
2018-11-21T07:25:17.767Z,1.7
2018-11-21T07:26:26.923Z,1.7
2018-11-21T07:27:36.139Z,1.7
2018-11-21T07:28:45.320Z,1.6
2018-11-21T07:29:54.497Z,1.6
2018-11-21T07:31:03.692Z,1.6
2018-11-21T07:32:12.873Z,1.6
2018-11-21T07:33:22.098Z,1.6
2018-11-21T07:34:31.267Z,1.5
2018-11-21T07:35:40.474Z,1.5
2018-11-21T07:36:49.656Z,1.6
2018-11-21T07:37:58.856Z,1.6
2018-11-21T07:39:08.060Z,1.6
2018-11-21T07:40:17.222Z,1.7
2018-11-21T07:41:26.415Z,1.6
2018-11-21T07:42:35.643Z,1.7
2018-11-21T07:43:44.840Z,1.6
2018-11-21T07:44:53.995Z,1.7
2018-11-21T07:46:03.204Z,1.6
2018-11-21T07:47:12.402Z,1.6
2018-11-21T07:48:21.580Z,1.6
2018-11-21T07:49:30.848Z,1.6
2018-11-21T07:50:39.968Z,1.7
2018-11-21T07:51:49.156Z,1.7
2018-11-21T07:52:58.380Z,1.6
2018-11-21T07:54:07.515Z,1.5
2018-11-21T07:55:16.731Z,1.5
2018-11-21T07:56:25.928Z,1.5
2018-11-21T07:57:35.095Z,1.6
2018-11-21T07:58:44.295Z,1.6
2018-11-21T07:59:54.478Z,1.5
2018-11-21T08:01:02.677Z,1.6
2018-11-21T08:02:11.863Z,1.4
2018-11-21T08:03:21.062Z,1.5
2018-11-21T08:04:30.243Z,1.5
2018-11-21T08:05:44.251Z,1.4
2018-11-21T08:06:48.635Z,1.3
2018-11-21T08:07:57.823Z,1.3
2018-11-21T08:09:07.009Z,1.4
2018-11-21T08:10:16.218Z,1.3
2018-11-21T08:11:25.418Z,1.4
2018-11-21T08:12:34.632Z,1.4
2018-11-21T08:13:43.842Z,1.4
2018-11-21T08:14:52.977Z,1.4
2018-11-21T08:16:02.173Z,1.5
2018-11-21T08:17:11.380Z,1.5
2018-11-21T08:18:20.541Z,1.5
2018-11-21T08:19:29.730Z,1.4
2018-11-21T08:20:38.916Z,1.3
2018-11-21T08:21:48.120Z,1.4
2018-11-21T08:22:57.389Z,1.5
2018-11-21T08:24:06.481Z,1.6
2018-11-21T08:25:15.682Z,1.5
2018-11-21T08:26:24.905Z,1.5
2018-11-21T08:27:34.060Z,1.5
2018-11-21T08:28:43.350Z,1.6
2018-11-21T08:29:52.433Z,1.5
2018-11-21T08:31:01.659Z,1.6
2018-11-21T08:32:10.817Z,1.7
2018-11-21T08:33:20.016Z,1.5
2018-11-21T08:34:29.253Z,1.7
2018-11-21T08:35:38.413Z,1.7
2018-11-21T08:36:47.595Z,1.6
2018-11-21T08:37:56.792Z,1.6
2018-11-21T08:39:06.035Z,1.7
2018-11-21T08:40:15.180Z,1.7
2018-11-21T08:41:24.385Z,1.6
2018-11-21T08:42:33.679Z,1.6
2018-11-21T08:43:43.249Z,1.5
2018-11-21T08:44:52.073Z,1.5
2018-11-21T08:46:01.150Z,1.6
2018-11-21T08:47:10.366Z,1.6
2018-11-21T08:48:19.548Z,1.7
2018-11-21T08:49:28.785Z,1.7
2018-11-21T08:50:37.973Z,1.5
2018-11-21T08:51:47.184Z,1.6
2018-11-21T08:52:56.352Z,1.6
2018-11-21T08:54:05.546Z,1.5
2018-11-21T08:55:14.750Z,1.6
2018-11-21T08:56:23.942Z,1.6
2018-11-21T08:57:33.149Z,1.6
2018-11-21T08:58:42.395Z,1.7
2018-11-21T08:59:51.525Z,1.6
2018-11-21T09:01:00.794Z,1.5
2018-11-21T09:02:09.908Z,1.5
2018-11-21T09:03:19.114Z,1.6
2018-11-21T09:04:28.347Z,1.6
2018-11-21T09:05:37.503Z,1.6
2018-11-21T09:06:46.701Z,1.6
2018-11-21T09:07:55.915Z,1.7
2018-11-21T09:09:05.053Z,1.8
2018-11-21T09:10:14.295Z,1.7
2018-11-21T09:11:23.455Z,1.6
2018-11-21T09:12:32.676Z,1.7
2018-11-21T09:13:41.862Z,1.7
2018-11-21T09:14:51.044Z,1.6
2018-11-21T09:16:00.237Z,1.7
2018-11-21T09:17:09.459Z,1.6
2018-11-21T09:18:18.635Z,1.6
2018-11-21T09:19:27.856Z,1.6
2018-11-21T09:20:37.038Z,1.6
2018-11-21T09:21:46.258Z,1.6
2018-11-21T09:22:55.426Z,1.6
2018-11-21T09:24:04.705Z,1.5
2018-11-21T09:25:13.823Z,1.7
2018-11-21T09:26:23.012Z,1.7
2018-11-21T09:27:32.269Z,1.7
2018-11-21T09:28:41.405Z,1.7
2018-11-21T09:29:50.610Z,1.7
2018-11-21T09:30:59.809Z,1.7
2018-11-21T09:32:08.999Z,1.7
2018-11-21T09:33:18.213Z,1.7
2018-11-21T09:34:27.428Z,1.8
2018-11-21T09:35:36.591Z,1.6
2018-11-21T09:36:45.831Z,1.7
2018-11-21T09:37:54.983Z,1.7
2018-11-21T09:39:04.193Z,1.7
2018-11-21T09:40:13.411Z,1.7
2018-11-21T09:41:22.589Z,1.8
2018-11-21T09:42:31.785Z,1.6
2018-11-21T09:43:41.027Z,1.7
2018-11-21T09:44:50.187Z,1.7
2018-11-21T09:45:59.396Z,1.8
2018-11-21T09:47:08.602Z,1.7
2018-11-21T09:48:17.807Z,1.7
2018-11-21T09:49:27.012Z,1.7
2018-11-21T09:50:36.223Z,1.8
2018-11-21T09:51:45.408Z,1.7
2018-11-21T09:52:54.612Z,1.7
2018-11-21T09:54:03.822Z,1.7
2018-11-21T09:55:13.014Z,1.8
2018-11-21T09:56:22.214Z,1.7
2018-11-21T09:57:31.418Z,1.7
2018-11-21T09:58:40.617Z,1.7
2018-11-21T09:59:49.822Z,1.7
2018-11-21T10:00:59.033Z,1.7
2018-11-21T10:02:08.270Z,1.7
2018-11-21T10:03:17.418Z,1.6
2018-11-21T10:04:26.623Z,1.7
2018-11-21T10:05:35.819Z,1.8
2018-11-21T10:06:45.015Z,1.7
2018-11-21T10:07:54.220Z,1.7
2018-11-21T10:09:03.429Z,1.7
2018-11-21T10:10:12.650Z,1.6
2018-11-21T10:11:21.807Z,1.6
2018-11-21T10:12:31.003Z,1.7
2018-11-21T10:13:40.237Z,1.7
2018-11-21T10:14:49.412Z,1.7
2018-11-21T10:16:00.984Z,1.7
2018-11-21T10:17:07.808Z,1.7
2018-11-21T10:18:17.004Z,1.6
2018-11-21T10:19:26.201Z,1.7
2018-11-21T10:20:35.402Z,1.7
2018-11-21T10:21:44.634Z,1.6
2018-11-21T10:22:53.803Z,1.6
2018-11-21T10:24:02.985Z,1.7
2018-11-21T10:25:12.237Z,1.8
2018-11-21T10:26:21.380Z,1.8
2018-11-21T10:27:30.621Z,1.7
2018-11-21T10:28:39.770Z,1.6
2018-11-21T10:29:49.002Z,1.7
2018-11-21T10:30:58.169Z,1.6
2018-11-21T10:32:07.361Z,1.5
2018-11-21T10:33:16.611Z,1.6
2018-11-21T10:34:25.826Z,1.5
2018-11-21T10:35:35.972Z,1.5
2018-11-21T10:36:44.146Z,1.5
2018-11-21T10:37:53.387Z,1.6
2018-11-21T10:39:02.544Z,1.6
2018-11-21T10:40:11.725Z,1.7
2018-11-21T10:41:21.053Z,1.7
2018-11-21T10:42:30.121Z,1.6
2018-11-21T10:43:39.316Z,1.6
2018-11-21T10:44:48.509Z,1.7
2018-11-21T10:45:57.714Z,1.7
2018-11-21T10:47:06.887Z,1.7
2018-11-21T10:48:16.091Z,1.7
2018-11-21T10:49:25.301Z,1.7
2018-11-21T10:50:34.473Z,1.7
2018-11-21T10:51:43.699Z,1.7
2018-11-21T10:52:52.867Z,1.7
2018-11-21T10:54:02.046Z,1.8
2018-11-21T10:55:11.265Z,1.8
2018-11-21T10:56:20.461Z,1.7
2018-11-21T10:57:29.682Z,1.8
2018-11-21T10:58:38.826Z,1.7
2018-11-21T10:59:48.110Z,1.7
2018-11-21T11:00:57.265Z,1.7
2018-11-21T11:02:06.416Z,1.7
2018-11-21T11:03:15.643Z,1.8
2018-11-21T11:04:24.818Z,1.7
2018-11-21T11:05:34.000Z,1.7
2018-11-21T11:06:43.235Z,1.7
2018-11-21T11:07:52.396Z,1.7
2018-11-21T11:09:01.594Z,1.7
2018-11-21T11:10:10.808Z,1.7
2018-11-21T11:11:19.979Z,1.7
2018-11-21T11:12:29.195Z,1.6
2018-11-21T11:13:38.380Z,1.7
2018-11-21T11:14:47.576Z,1.8
2018-11-21T11:15:56.777Z,1.8
2018-11-21T11:17:05.974Z,1.8
2018-11-21T11:18:15.227Z,1.8
2018-11-21T11:19:24.373Z,1.8
2018-11-21T11:20:33.659Z,1.8
2018-11-21T11:21:42.769Z,1.8
2018-11-21T11:22:51.964Z,1.8
2018-11-21T11:24:01.147Z,1.9
2018-11-21T11:25:10.376Z,1.7
2018-11-21T11:26:19.560Z,1.7
2018-11-21T11:27:28.838Z,1.8
2018-11-21T11:28:37.944Z,1.7
2018-11-21T11:29:47.142Z,1.8
2018-11-21T11:30:56.610Z,1.8
2018-11-21T11:32:05.548Z,1.8
2018-11-21T11:33:14.747Z,1.9
2018-11-21T11:34:23.960Z,1.8
2018-11-21T11:35:33.126Z,1.7
2018-11-21T11:36:42.412Z,1.8
2018-11-21T11:37:51.556Z,1.9
2018-11-21T11:39:00.744Z,1.8
2018-11-21T11:40:09.947Z,1.8
2018-11-21T11:41:19.162Z,1.9
2018-11-21T11:42:28.448Z,1.8
2018-11-21T11:43:37.591Z,1.7
2018-11-21T11:44:46.739Z,1.8
2018-11-21T11:45:56.102Z,1.8
2018-11-21T11:47:06.615Z,1.9
2018-11-21T11:48:14.333Z,1.9
2018-11-21T11:49:23.545Z,1.9
2018-11-21T11:50:32.761Z,1.9
2018-11-21T11:51:41.953Z,1.9
2018-11-21T11:52:51.146Z,1.9
2018-11-21T11:54:00.344Z,2
2018-11-21T11:55:09.561Z,1.9
2018-11-21T11:56:18.782Z,1.9
2018-11-21T11:57:27.955Z,1.9
2018-11-21T11:58:37.154Z,1.9
2018-11-21T11:59:46.350Z,1.9
2018-11-21T12:00:55.548Z,1.9
2018-11-21T12:02:04.755Z,2
2018-11-21T12:03:13.963Z,2.1
2018-11-21T12:04:23.168Z,1.8
2018-11-21T12:05:32.378Z,1.9
2018-11-21T12:06:41.567Z,1.9
2018-11-21T12:07:50.768Z,2
2018-11-21T12:09:00.743Z,1.9
2018-11-21T12:10:09.245Z,2.1
2018-11-21T12:11:18.392Z,2
2018-11-21T12:12:27.580Z,1.9
2018-11-21T12:13:36.806Z,1.9
2018-11-21T12:14:46.002Z,1.9
2018-11-21T12:15:55.192Z,1.9
2018-11-21T12:17:04.408Z,1.9
2018-11-21T12:18:13.613Z,2
2018-11-21T12:19:22.801Z,2
2018-11-21T12:20:32.009Z,2.1
2018-11-21T12:21:41.333Z,2.1
2018-11-21T12:22:50.431Z,2.1
2018-11-21T12:23:59.618Z,2.1
2018-11-21T12:25:08.823Z,2.1
2018-11-21T12:26:18.096Z,2
2018-11-21T12:29:04.049Z,2.1
2018-11-21T12:29:24.189Z,2.1
2018-11-21T12:31:11.554Z,2.1
2018-11-21T12:32:04.067Z,2.1
2018-11-21T12:33:13.251Z,1.9
2018-11-21T12:34:22.497Z,1.9
2018-11-21T12:35:31.667Z,1.9
2018-11-21T12:36:40.902Z,1.9
2018-11-21T12:38:59.286Z,2.1
2018-11-21T12:40:08.490Z,2.1
2018-11-21T12:41:17.723Z,2.1
2018-11-21T12:42:26.908Z,2.1
2018-11-21T12:43:36.130Z,2.1
2018-11-21T12:44:45.300Z,2.1
2018-11-21T12:45:54.529Z,2.1
2018-11-21T12:47:03.726Z,2
2018-11-21T12:48:12.946Z,2.1
2018-11-21T12:49:22.170Z,2.1
2018-11-21T12:50:31.344Z,2.1
2018-11-21T12:51:40.579Z,2.1
2018-11-21T12:52:49.762Z,2
2018-11-21T12:53:58.986Z,2.1
2018-11-21T12:55:08.165Z,2.1
2018-11-21T12:56:17.374Z,2.1
2018-11-21T12:57:26.591Z,2.1
2018-11-21T12:58:35.779Z,2.1
2018-11-21T12:59:44.988Z,2.2
2018-11-21T13:00:54.195Z,2.1
2018-11-21T13:02:03.386Z,2.1
2018-11-21T13:03:12.614Z,2.2
2018-11-21T13:04:21.804Z,2.1
2018-11-21T13:05:31.106Z,2.1
2018-11-21T13:06:40.273Z,2
2018-11-21T13:07:49.438Z,2.1
2018-11-21T13:08:58.629Z,2.1
2018-11-21T13:10:07.850Z,2.1
2018-11-21T13:11:17.036Z,2.1
2018-11-21T13:12:26.252Z,1.9
2018-11-21T13:13:35.462Z,2
2018-11-21T13:14:44.644Z,2.1
2018-11-21T13:15:53.888Z,2
2018-11-21T13:17:03.064Z,2
2018-11-21T13:18:12.374Z,2
2018-11-21T13:19:21.499Z,2.1
2018-11-21T13:20:30.666Z,2
2018-11-21T13:21:39.867Z,2
2018-11-21T13:22:49.068Z,2.1
2018-11-21T13:23:58.365Z,2
2018-11-21T13:25:07.486Z,2.1
2018-11-21T13:26:16.716Z,2.1
2018-11-21T13:27:25.873Z,2
2018-11-21T13:28:35.086Z,2
2018-11-21T13:29:44.302Z,1.9
2018-11-21T13:30:53.500Z,1.9
2018-11-21T13:32:02.764Z,1.9
2018-11-21T13:33:11.867Z,1.8
2018-11-21T13:34:21.079Z,1.9
2018-11-21T13:35:30.277Z,2
2018-11-21T13:36:39.517Z,2
2018-11-21T13:37:48.736Z,1.9
2018-11-21T13:38:57.880Z,1.9
2018-11-21T13:40:07.067Z,2
2018-11-21T13:41:16.272Z,1.9
2018-11-21T13:42:30.320Z,1.9
2018-11-21T13:43:34.702Z,2
2018-11-21T13:44:43.882Z,1.9
2018-11-21T13:45:53.074Z,1.9
2018-11-21T13:47:02.283Z,2
2018-11-21T13:48:11.507Z,2
2018-11-21T13:49:20.684Z,2
2018-11-21T13:50:34.097Z,2
2018-11-21T13:51:39.079Z,2.1
2018-11-21T13:52:48.283Z,2.1
2018-11-21T13:53:57.478Z,1.9
2018-11-21T13:55:06.695Z,2
2018-11-21T13:56:15.869Z,1.9
2018-11-21T13:57:25.071Z,1.9
2018-11-21T13:58:34.295Z,1.9
2018-11-21T13:59:43.519Z,1.9
2018-11-21T14:00:52.673Z,1.9
2018-11-21T14:02:01.897Z,1.8
2018-11-21T14:03:11.070Z,1.8
2018-11-21T14:04:20.288Z,1.8
2018-11-21T14:05:29.469Z,1.8
2018-11-21T14:06:38.682Z,1.7
2018-11-21T14:07:48.252Z,1.8
2018-11-21T14:08:57.407Z,1.8
2018-11-21T14:10:06.606Z,1.8
2018-11-21T14:11:15.822Z,1.9
2018-11-21T14:12:25.002Z,1.8
2018-11-21T14:13:34.224Z,1.8
2018-11-21T14:14:43.416Z,1.8
2018-11-21T14:15:52.679Z,1.8
2018-11-21T14:17:01.799Z,1.9
2018-11-21T14:18:11.027Z,1.8
2018-11-21T14:19:20.179Z,1.8
2018-11-21T14:20:29.370Z,1.9
2018-11-21T14:21:38.590Z,1.8
2018-11-21T14:22:47.766Z,1.8
2018-11-21T14:23:56.970Z,1.8
2018-11-21T14:25:06.182Z,1.8
2018-11-21T14:26:15.361Z,1.8
2018-11-21T14:27:24.593Z,1.9
2018-11-21T14:28:33.746Z,1.8
2018-11-21T14:29:42.970Z,1.9
2018-11-21T14:30:52.187Z,1.9
2018-11-21T14:32:01.337Z,1.9
2018-11-21T14:33:10.526Z,1.9
2018-11-21T14:34:19.719Z,1.8
2018-11-21T14:35:28.953Z,1.9
2018-11-21T14:36:38.129Z,1.9
2018-11-21T14:37:47.322Z,1.8
2018-11-21T14:38:56.511Z,1.8
2018-11-21T14:40:05.933Z,1.8
2018-11-21T14:41:14.922Z,1.8
2018-11-21T14:42:24.120Z,1.8
2018-11-21T14:43:33.332Z,1.8
2018-11-21T14:44:42.479Z,1.8
2018-11-21T14:45:51.699Z,1.7
2018-11-21T14:47:00.893Z,1.7
2018-11-21T14:48:10.126Z,1.7
2018-11-21T14:49:19.318Z,1.7
2018-11-21T14:50:28.571Z,1.8
2018-11-21T14:51:37.660Z,1.7
2018-11-21T14:52:46.872Z,1.7
2018-11-21T14:53:56.059Z,1.7
2018-11-21T14:55:05.248Z,1.7
2018-11-21T14:56:14.494Z,1.7
2018-11-21T14:57:23.639Z,1.7
2018-11-21T14:58:32.858Z,1.7
2018-11-21T14:59:42.037Z,1.7
2018-11-21T15:00:51.227Z,1.7
2018-11-21T15:02:00.428Z,1.7
2018-11-21T15:03:09.607Z,1.6
2018-11-21T15:04:18.801Z,1.6
2018-11-21T15:05:27.993Z,1.7
2018-11-21T15:06:37.183Z,1.7
2018-11-21T15:07:46.392Z,1.7
2018-11-21T15:08:55.615Z,1.7
2018-11-21T15:10:04.763Z,1.7
2018-11-21T15:11:13.980Z,1.7
2018-11-21T15:12:23.172Z,1.7
2018-11-21T15:13:32.341Z,1.7
2018-11-21T15:14:41.544Z,1.6
2018-11-21T15:15:50.779Z,1.6
2018-11-21T15:16:59.918Z,1.7
2018-11-21T15:18:09.191Z,1.6
2018-11-21T15:19:18.315Z,1.6
2018-11-21T15:20:27.481Z,1.7
2018-11-21T15:21:36.684Z,1.6
2018-11-21T15:22:45.875Z,1.6
2018-11-21T15:23:55.065Z,1.6
2018-11-21T15:25:04.284Z,1.7
2018-11-21T15:26:13.524Z,1.7
2018-11-21T15:27:22.636Z,1.7
2018-11-21T15:28:31.832Z,1.7
2018-11-21T15:29:41.012Z,1.7
2018-11-21T15:30:50.211Z,1.6
2018-11-21T15:31:59.399Z,1.6
2018-11-21T15:33:08.595Z,1.6
2018-11-21T15:34:17.782Z,1.6
2018-11-21T15:35:26.975Z,1.7
2018-11-21T15:36:36.164Z,1.7
2018-11-21T15:37:45.359Z,1.6
2018-11-21T15:38:54.543Z,1.6
2018-11-21T15:40:03.740Z,1.7
2018-11-21T15:41:12.955Z,1.7
2018-11-21T15:42:22.129Z,1.7
2018-11-21T15:43:31.334Z,1.6
2018-11-21T15:44:40.510Z,1.7
2018-11-21T15:45:49.706Z,1.6
2018-11-21T15:46:58.883Z,1.6
2018-11-21T15:48:08.118Z,1.6
2018-11-21T15:49:17.267Z,1.6
2018-11-21T15:50:26.472Z,1.6
2018-11-21T15:51:35.650Z,1.6
2018-11-21T15:52:45.489Z,1.7
2018-11-21T15:53:54.029Z,1.6
2018-11-21T15:55:03.202Z,1.7
2018-11-21T15:56:12.443Z,1.6
2018-11-21T15:57:21.589Z,1.7
2018-11-21T15:58:30.802Z,1.6
2018-11-21T15:59:39.977Z,1.6